Time;durP1;ratioP1;P1;durP2;ratioP2;P2;SDS_P1;SDS_P2;PMS_P1;PMS_P2;Temp;Humidity;BMP_temperature;BMP_pressure;BME280_temperature;BME280_humidity;BME280_pressure;Samples;Min_cycle;Max_cycle;Signal;HPM_P1;HPM_P2
2023/03/12 00:00:39;0.00;0.00;0.62;0.00;0.00;0.62;2.63;1.23;;;21.20;20.80;;;;;;2251875;61;20766;-65
2023/03/12 00:03:25;0.00;0.00;0.62;0.00;0.00;0.62;1.70;1.10;;;21.20;20.80;;;;;;2252281;61;20390;-57
2023/03/12 00:06:10;0.00;0.00;0.62;0.00;0.00;0.62;2.00;1.30;;;21.20;20.80;;;;;;2251775;61;20363;-56
2023/03/12 00:08:56;0.00;0.00;0.62;0.00;0.00;0.62;1.80;1.20;;;21.20;20.80;;;;;;2251687;61;20575;-56
2023/03/12 00:11:41;0.00;0.00;0.62;0.00;0.00;0.62;1.60;1.07;;;21.20;20.80;;;;;;2252153;61;20581;-57
2023/03/12 00:14:25;0.00;0.00;0.62;0.00;0.00;0.62;1.77;1.30;;;21.20;20.80;;;;;;2251810;61;20418;-58
2023/03/12 00:17:10;0.00;0.00;0.62;0.00;0.00;0.62;2.23;1.60;;;21.20;20.80;;;;;;2252207;61;20386;-56
2023/03/12 00:19:57;0.00;0.00;0.62;0.00;0.00;0.62;2.10;1.23;;;21.20;20.80;;;;;;2251160;61;20363;-53
2023/03/12 00:22:41;0.00;0.00;0.62;0.00;0.00;0.62;2.20;1.27;;;21.20;20.80;;;;;;2252103;61;20395;-57
2023/03/12 00:25:26;0.00;0.00;0.62;0.00;0.00;0.62;2.90;1.40;;;21.20;20.80;;;;;;2251952;61;20430;-53
2023/03/12 00:28:11;0.00;0.00;0.62;0.00;0.00;0.62;3.13;1.20;;;21.10;20.70;;;;;;2251143;61;20395;-60
2023/03/12 00:30:57;0.00;0.00;0.62;0.00;0.00;0.62;1.60;1.03;;;21.10;20.70;;;;;;2251789;61;20474;-51
2023/03/12 00:33:41;0.00;0.00;0.62;0.00;0.00;0.62;2.93;1.30;;;21.20;20.80;;;;;;2251476;61;20899;-52
2023/03/12 00:36:31;0.00;0.00;0.62;0.00;0.00;0.62;1.90;1.30;;;21.10;20.70;;;;;;2251813;61;20409;-58
2023/03/12 00:39:15;0.00;0.00;0.62;0.00;0.00;0.62;1.60;0.90;;;21.10;20.70;;;;;;2251502;61;20439;-54
2023/03/12 00:42:00;0.00;0.00;0.62;0.00;0.00;0.62;1.70;1.20;;;21.10;20.70;;;;;;2251722;61;20359;-57
2023/03/12 00:44:45;0.00;0.00;0.62;0.00;0.00;0.62;2.00;1.13;;;21.10;20.70;;;;;;2251562;61;20390;-55
2023/03/12 00:47:30;0.00;0.00;0.62;0.00;0.00;0.62;1.80;1.10;;;21.10;20.70;;;;;;2251725;61;20485;-54
2023/03/12 00:50:15;0.00;0.00;0.62;0.00;0.00;0.62;2.27;1.40;;;21.10;20.80;;;;;;2251236;61;20398;-50
2023/03/12 00:53:01;0.00;0.00;0.62;0.00;0.00;0.62;1.70;1.07;;;21.10;20.70;;;;;;2252906;61;20848;-54
2023/03/12 00:55:46;0.00;0.00;0.62;0.00;0.00;0.62;2.13;1.40;;;21.00;20.70;;;;;;2252177;61;20390;-56
2023/03/12 00:58:31;0.00;0.00;0.62;0.00;0.00;0.62;1.50;1.10;;;21.10;20.80;;;;;;2252333;61;20410;-51
2023/03/12 01:01:16;0.00;0.00;0.62;0.00;0.00;0.62;1.63;1.10;;;21.00;20.70;;;;;;2252373;61;20911;-52
2023/03/12 01:04:03;0.00;0.00;0.62;0.00;0.00;0.62;1.60;1.13;;;21.00;20.70;;;;;;2251936;61;20806;-54
2023/03/12 01:06:48;0.00;0.00;0.62;0.00;0.00;0.62;1.93;1.20;;;21.00;20.70;;;;;;2252343;61;20880;-52
2023/03/12 01:09:34;0.00;0.00;0.62;0.00;0.00;0.62;2.00;1.20;;;21.00;20.70;;;;;;2252126;61;20522;-52
2023/03/12 01:12:18;0.00;0.00;0.62;0.00;0.00;0.62;1.50;0.90;;;21.00;20.70;;;;;;2252166;61;20451;-55
2023/03/12 01:15:04;0.00;0.00;0.62;0.00;0.00;0.62;1.87;1.10;;;21.00;20.70;;;;;;2252734;61;20382;-53
2023/03/12 01:17:49;0.00;0.00;0.62;0.00;0.00;0.62;1.70;1.10;;;21.00;20.70;;;;;;2251974;61;20467;-51
2023/03/12 01:20:35;0.00;0.00;0.62;0.00;0.00;0.62;1.70;1.10;;;20.90;20.60;;;;;;2251691;61;20409;-56
2023/03/12 01:23:20;0.00;0.00;0.62;0.00;0.00;0.62;1.90;1.30;;;21.00;20.70;;;;;;2252185;61;20366;-53
2023/03/12 01:26:06;0.00;0.00;0.62;0.00;0.00;0.62;1.80;1.07;;;21.00;20.70;;;;;;2252063;61;20371;-51
2023/03/12 01:28:50;0.00;0.00;0.62;0.00;0.00;0.62;2.00;1.27;;;21.00;20.70;;;;;;2252183;61;20984;-56
2023/03/12 01:31:35;0.00;0.00;0.62;0.00;0.00;0.62;1.50;0.90;;;20.90;20.60;;;;;;2252422;61;20458;-58
2023/03/12 01:34:20;0.00;0.00;0.62;0.00;0.00;0.62;1.37;0.90;;;20.90;20.60;;;;;;2251847;61;20378;-51
2023/03/12 01:37:06;0.00;0.00;0.62;0.00;0.00;0.62;1.70;1.00;;;21.00;20.60;;;;;;2252897;61;20355;-50
2023/03/12 01:39:51;0.00;0.00;0.62;0.00;0.00;0.62;1.73;1.07;;;20.90;20.60;;;;;;2252449;61;20426;-51
2023/03/12 01:42:37;0.00;0.00;0.62;0.00;0.00;0.62;1.77;1.00;;;20.90;20.60;;;;;;2252253;61;20358;-53
2023/03/12 01:46:06;0.00;0.00;0.62;0.00;0.00;0.62;1.50;0.90;;;20.90;20.60;;;;;;2252102;61;20931;-50
2023/03/12 01:48:56;0.00;0.00;0.62;0.00;0.00;0.62;1.60;0.90;;;20.90;20.60;;;;;;2251225;61;20469;-54
2023/03/12 01:51:46;0.00;0.00;0.62;0.00;0.00;0.62;1.40;0.90;;;20.90;20.60;;;;;;2252373;61;20456;-50
2023/03/12 01:54:36;0.00;0.00;0.62;0.00;0.00;0.62;1.60;0.97;;;20.90;20.60;;;;;;2251965;61;20475;-53
2023/03/12 01:57:28;0.00;0.00;0.62;0.00;0.00;0.62;1.43;0.93;;;20.90;20.60;;;;;;2251843;61;20394;-52
2023/03/12 02:00:18;0.00;0.00;0.62;0.00;0.00;0.62;1.70;1.13;;;20.90;20.60;;;;;;2252353;61;20457;-50
2023/03/12 02:03:07;0.00;0.00;0.62;0.00;0.00;0.62;1.33;0.80;;;20.90;20.60;;;;;;2251832;61;20359;-54
2023/03/12 02:05:59;0.00;0.00;0.62;0.00;0.00;0.62;1.50;0.90;;;20.90;20.60;;;;;;2251822;61;20775;-50
2023/03/12 02:08:47;0.00;0.00;0.62;0.00;0.00;0.62;1.50;0.90;;;20.80;20.50;;;;;;2252026;61;20953;-53
2023/03/12 02:11:31;0.00;0.00;0.62;0.00;0.00;0.62;1.70;0.90;;;20.80;20.50;;;;;;2251666;61;20391;-51
2023/03/12 02:14:17;0.00;0.00;0.62;0.00;0.00;0.62;2.20;1.10;;;20.80;20.50;;;;;;2251963;61;20426;-52
2023/03/12 02:17:04;0.00;0.00;0.62;0.00;0.00;0.62;1.60;1.00;;;20.80;20.50;;;;;;2251775;61;20923;-56
2023/03/12 02:19:59;0.00;0.00;0.62;0.00;0.00;0.62;1.63;1.10;;;20.80;20.50;;;;;;2252207;61;20750;-49
2023/03/12 02:22:52;0.00;0.00;0.62;0.00;0.00;0.62;1.60;1.07;;;20.80;20.50;;;;;;2252564;61;20398;-53
2023/03/12 02:25:42;0.00;0.00;0.62;0.00;0.00;0.62;1.63;1.07;;;20.80;20.50;;;;;;2252352;61;20390;-50
2023/03/12 02:28:29;0.00;0.00;0.62;0.00;0.00;0.62;1.93;1.10;;;20.70;20.50;;;;;;2251845;61;20422;-52
2023/03/12 02:31:17;0.00;0.00;0.62;0.00;0.00;0.62;1.40;0.90;;;20.80;20.50;;;;;;2252271;61;20367;-54
2023/03/12 02:34:02;0.00;0.00;0.62;0.00;0.00;0.62;1.50;0.90;;;20.80;20.50;;;;;;2251565;61;20387;-50
2023/03/12 02:36:48;0.00;0.00;0.62;0.00;0.00;0.62;1.60;0.90;;;20.70;20.50;;;;;;2252217;61;20363;-54
2023/03/12 02:39:33;0.00;0.00;0.62;0.00;0.00;0.62;1.67;1.00;;;20.80;20.50;;;;;;2251579;61;20895;-50
2023/03/12 02:42:19;0.00;0.00;0.62;0.00;0.00;0.62;1.70;1.00;;;20.70;20.50;;;;;;2252009;61;20370;-58
2023/03/12 02:45:06;0.00;0.00;0.62;0.00;0.00;0.62;2.53;1.10;;;20.70;20.50;;;;;;2252219;61;21023;-56
2023/03/12 02:47:52;0.00;0.00;0.62;0.00;0.00;0.62;1.80;1.20;;;20.70;20.50;;;;;;2251821;61;20398;-53
2023/03/12 02:50:37;0.00;0.00;0.62;0.00;0.00;0.62;1.73;0.90;;;20.70;20.40;;;;;;2251499;61;20363;-53
2023/03/12 02:53:22;0.00;0.00;0.62;0.00;0.00;0.62;2.20;1.10;;;20.70;20.40;;;;;;2252089;61;20413;-55
2023/03/12 02:56:07;0.00;0.00;0.62;0.00;0.00;0.62;1.80;1.07;;;20.70;20.50;;;;;;2251403;61;20387;-55
2023/03/12 02:58:54;0.00;0.00;0.62;0.00;0.00;0.62;1.30;0.70;;;20.70;20.50;;;;;;2251793;61;20367;-54
2023/03/12 03:01:41;0.00;0.00;0.62;0.00;0.00;0.62;1.40;0.97;;;20.70;20.50;;;;;;2251611;61;20402;-55
2023/03/12 03:04:28;0.00;0.00;0.62;0.00;0.00;0.62;1.50;0.93;;;20.70;20.50;;;;;;2251627;61;20467;-53
2023/03/12 03:07:13;0.00;0.00;0.62;0.00;0.00;0.62;1.30;0.80;;;20.70;20.50;;;;;;2251884;61;20417;-56
2023/03/12 03:10:03;0.00;0.00;0.62;0.00;0.00;0.62;1.70;1.00;;;20.70;20.50;;;;;;2251268;61;20395;-55
2023/03/12 03:12:48;0.00;0.00;0.62;0.00;0.00;0.62;1.43;0.80;;;20.60;20.40;;;;;;2251928;61;20977;-50
2023/03/12 03:15:37;0.00;0.00;0.62;0.00;0.00;0.62;1.60;0.90;;;20.60;20.40;;;;;;2251911;61;20921;-53
2023/03/12 03:18:22;0.00;0.00;0.62;0.00;0.00;0.62;1.70;1.07;;;20.60;20.40;;;;;;2251602;61;20343;-53
2023/03/12 03:21:09;0.00;0.00;0.62;0.00;0.00;0.62;1.40;0.93;;;20.60;20.40;;;;;;2251675;61;20394;-55
2023/03/12 03:23:54;0.00;0.00;0.62;0.00;0.00;0.62;1.97;1.10;;;20.60;20.40;;;;;;2251629;61;20378;-49
2023/03/12 03:26:39;0.00;0.00;0.62;0.00;0.00;0.62;1.47;0.90;;;20.60;20.40;;;;;;2252124;61;20455;-53
2023/03/12 03:29:24;0.00;0.00;0.62;0.00;0.00;0.62;1.40;0.90;;;20.60;20.40;;;;;;2251298;61;20387;-56
2023/03/12 03:32:10;0.00;0.00;0.62;0.00;0.00;0.62;1.57;0.90;;;20.60;20.40;;;;;;2251646;61;20899;-55
2023/03/12 03:34:55;0.00;0.00;0.62;0.00;0.00;0.62;1.47;0.90;;;20.60;20.50;;;;;;2251939;61;20383;-55
2023/03/12 03:37:40;0.00;0.00;0.62;0.00;0.00;0.62;1.60;0.93;;;20.60;20.40;;;;;;2254473;61;20362;-59
2023/03/12 03:40:24;0.00;0.00;0.62;0.00;0.00;0.62;1.70;1.00;;;20.60;20.50;;;;;;2251472;61;20911;-53
2023/03/12 03:43:09;0.00;0.00;0.62;0.00;0.00;0.62;1.60;0.93;;;20.60;20.50;;;;;;2252374;61;20502;-53
2023/03/12 03:45:59;0.00;0.00;0.62;0.00;0.00;0.62;1.30;0.80;;;20.60;20.50;;;;;;2251414;61;20367;-52
2023/03/12 03:48:45;0.00;0.00;0.62;0.00;0.00;0.62;1.53;0.90;;;20.50;20.40;;;;;;2254416;61;20437;-55
2023/03/12 03:51:32;0.00;0.00;0.62;0.00;0.00;0.62;1.60;1.00;;;20.60;20.50;;;;;;2252067;61;20422;-54
2023/03/12 03:54:22;0.00;0.00;0.62;0.00;0.00;0.62;1.60;0.80;;;20.60;20.50;;;;;;2251525;61;20455;-56
2023/03/12 03:57:07;0.00;0.00;0.62;0.00;0.00;0.62;1.40;0.83;;;20.50;20.90;;;;;;2251643;61;20367;-55
2023/03/12 03:59:52;0.00;0.00;0.62;0.00;0.00;0.62;1.50;0.97;;;20.50;20.40;;;;;;2251455;61;20947;-55
2023/03/12 04:02:37;0.00;0.00;0.62;0.00;0.00;0.62;1.30;0.80;;;20.50;20.40;;;;;;2254002;61;20374;-52
2023/03/12 04:05:25;0.00;0.00;0.62;0.00;0.00;0.62;1.50;0.90;;;20.50;20.40;;;;;;2251647;61;20869;-58
2023/03/12 04:08:11;0.00;0.00;0.62;0.00;0.00;0.62;1.50;0.70;;;20.50;20.40;;;;;;2251360;61;20601;-55
2023/03/12 04:10:56;0.00;0.00;0.62;0.00;0.00;0.62;1.60;0.90;;;20.50;20.40;;;;;;2251538;61;20374;-53
2023/03/12 04:13:41;0.00;0.00;0.62;0.00;0.00;0.62;1.50;0.83;;;20.50;20.40;;;;;;2251830;61;20371;-57
2023/03/12 04:16:27;0.00;0.00;0.62;0.00;0.00;0.62;1.40;0.73;;;20.50;20.40;;;;;;2251668;61;20367;-57
2023/03/12 04:19:13;0.00;0.00;0.62;0.00;0.00;0.62;1.50;0.90;;;20.50;20.40;;;;;;2251646;61;20426;-56
2023/03/12 04:22:00;0.00;0.00;0.62;0.00;0.00;0.62;1.40;0.90;;;20.40;20.40;;;;;;2252368;61;20584;-53
2023/03/12 04:24:45;0.00;0.00;0.62;0.00;0.00;0.62;1.43;0.87;;;20.40;20.40;;;;;;2251673;61;20386;-54
2023/03/12 04:27:30;0.00;0.00;0.62;0.00;0.00;0.62;1.50;0.90;;;20.40;20.40;;;;;;2251758;61;20459;-56
2023/03/12 04:30:15;0.00;0.00;0.62;0.00;0.00;0.62;1.50;0.90;;;20.40;20.40;;;;;;2250906;61;20898;-53
2023/03/12 04:33:02;0.00;0.00;0.62;0.00;0.00;0.62;1.60;0.90;;;20.40;20.40;;;;;;2251597;61;20370;-53
2023/03/12 04:35:51;0.00;0.00;0.62;0.00;0.00;0.62;1.60;1.00;;;20.40;20.40;;;;;;2251645;61;20390;-57
2023/03/12 04:38:38;0.00;0.00;0.62;0.00;0.00;0.62;1.60;0.90;;;20.40;20.40;;;;;;2251714;61;20414;-52
2023/03/12 04:41:23;0.00;0.00;0.62;0.00;0.00;0.62;1.43;0.80;;;20.40;20.40;;;;;;2251580;61;20367;-48
2023/03/12 04:44:14;0.00;0.00;0.62;0.00;0.00;0.62;1.50;0.90;;;20.40;20.40;;;;;;2254218;61;20386;-50
2023/03/12 04:47:00;0.00;0.00;0.62;0.00;0.00;0.62;1.57;1.13;;;20.40;20.40;;;;;;2251305;61;20362;-49
2023/03/12 04:49:44;0.00;0.00;0.62;0.00;0.00;0.62;1.43;0.80;;;20.40;20.40;;;;;;2251792;61;20410;-50
2023/03/12 04:52:29;0.00;0.00;0.62;0.00;0.00;0.62;2.23;0.90;;;20.40;20.40;;;;;;2251989;61;20390;-54
2023/03/12 04:55:15;0.00;0.00;0.62;0.00;0.00;0.62;1.80;0.80;;;20.40;20.40;;;;;;2248653;61;20390;-50
2023/03/12 04:58:01;0.00;0.00;0.62;0.00;0.00;0.62;1.40;0.70;;;20.40;20.40;;;;;;2252214;61;20367;-51
2023/03/12 05:00:47;0.00;0.00;0.62;0.00;0.00;0.62;1.63;0.97;;;20.40;20.40;;;;;;2251562;61;20383;-51
2023/03/12 05:03:32;0.00;0.00;0.62;0.00;0.00;0.62;1.40;0.80;;;20.40;20.40;;;;;;2251431;61;20778;-51
2023/03/12 05:06:17;0.00;0.00;0.62;0.00;0.00;0.62;1.30;0.70;;;20.40;20.40;;;;;;2251569;61;20979;-50
2023/03/12 05:09:02;0.00;0.00;0.62;0.00;0.00;0.62;1.37;0.77;;;20.30;20.30;;;;;;2251160;61;20871;-48
2023/03/12 05:11:49;0.00;0.00;0.62;0.00;0.00;0.62;1.30;0.80;;;20.30;20.40;;;;;;2251602;61;20946;-53
2023/03/12 05:14:38;0.00;0.00;0.62;0.00;0.00;0.62;1.50;0.80;;;20.30;20.40;;;;;;2251342;61;20423;-56
2023/03/12 05:17:24;0.00;0.00;0.62;0.00;0.00;0.62;1.20;0.67;;;20.30;20.40;;;;;;2251344;61;20834;-51
2023/03/12 05:20:10;0.00;0.00;0.62;0.00;0.00;0.62;1.73;0.87;;;20.30;20.40;;;;;;2251177;61;20787;-50
2023/03/12 05:22:55;0.00;0.00;0.62;0.00;0.00;0.62;1.40;0.80;;;20.30;20.30;;;;;;2251921;61;20358;-51
2023/03/12 05:25:40;0.00;0.00;0.62;0.00;0.00;0.62;1.40;0.87;;;20.30;20.40;;;;;;2251275;61;20388;-54
2023/03/12 05:28:27;0.00;0.00;0.62;0.00;0.00;0.62;1.30;0.70;;;20.30;20.40;;;;;;2251404;61;20521;-51
2023/03/12 05:31:16;0.00;0.00;0.62;0.00;0.00;0.62;1.70;1.00;;;20.30;20.40;;;;;;2251049;61;20413;-54
2023/03/12 05:34:02;0.00;0.00;0.62;0.00;0.00;0.62;1.67;0.90;;;20.30;20.30;;;;;;2251430;61;20547;-51
2023/03/12 05:36:48;0.00;0.00;0.62;0.00;0.00;0.62;1.77;0.80;;;20.30;20.40;;;;;;2251495;61;20371;-53
2023/03/12 05:39:45;0.00;0.00;0.62;0.00;0.00;0.62;1.70;0.93;;;20.30;20.40;;;;;;2251712;61;20392;-50
2023/03/12 05:42:30;0.00;0.00;0.62;0.00;0.00;0.62;1.87;0.90;;;20.30;20.40;;;;;;2252307;61;20776;-50
2023/03/12 05:45:18;0.00;0.00;0.62;0.00;0.00;0.62;1.50;1.07;;;20.30;20.30;;;;;;2251795;61;20394;-56
2023/03/12 05:48:06;0.00;0.00;0.62;0.00;0.00;0.62;1.40;0.80;;;20.20;20.30;;;;;;2251777;61;20387;-53
2023/03/12 05:50:51;0.00;0.00;0.62;0.00;0.00;0.62;1.40;0.90;;;20.20;20.30;;;;;;2249439;61;20375;-51
2023/03/12 05:53:36;0.00;0.00;0.62;0.00;0.00;0.62;2.00;1.10;;;20.20;20.30;;;;;;2252069;61;20422;-50
2023/03/12 05:56:21;0.00;0.00;0.62;0.00;0.00;0.62;1.60;0.90;;;20.20;20.30;;;;;;2252330;61;20418;-50
2023/03/12 05:59:09;0.00;0.00;0.62;0.00;0.00;0.62;1.70;0.93;;;20.30;20.40;;;;;;2252381;61;20382;-50
2023/03/12 06:01:55;0.00;0.00;0.62;0.00;0.00;0.62;1.30;0.73;;;20.20;20.30;;;;;;2251965;61;20435;-54
2023/03/12 06:04:40;0.00;0.00;0.62;0.00;0.00;0.62;1.50;0.90;;;20.20;20.30;;;;;;2252128;61;20441;-51
2023/03/12 06:07:25;0.00;0.00;0.62;0.00;0.00;0.62;1.60;0.97;;;20.20;20.30;;;;;;2251722;61;20875;-53
2023/03/12 06:10:11;0.00;0.00;0.62;0.00;0.00;0.62;1.40;0.90;;;20.20;20.30;;;;;;2254470;61;20907;-52
2023/03/12 06:12:57;0.00;0.00;0.62;0.00;0.00;0.62;2.40;0.80;;;20.20;20.30;;;;;;2252263;61;20418;-53
2023/03/12 06:15:42;0.00;0.00;0.62;0.00;0.00;0.62;1.47;1.07;;;20.20;20.30;;;;;;2251428;61;20414;-49
2023/03/12 06:18:29;0.00;0.00;0.62;0.00;0.00;0.62;1.40;0.90;;;20.20;20.30;;;;;;2252305;61;20429;-51
2023/03/12 06:21:16;0.00;0.00;0.62;0.00;0.00;0.62;1.40;0.70;;;20.20;20.30;;;;;;2251374;61;20418;-51
2023/03/12 06:24:02;0.00;0.00;0.62;0.00;0.00;0.62;1.20;0.70;;;20.20;20.30;;;;;;2251805;61;20389;-53
2023/03/12 06:26:54;0.00;0.00;0.62;0.00;0.00;0.62;1.67;1.43;;;20.20;20.30;;;;;;2251947;61;20363;-53
2023/03/12 06:29:39;0.00;0.00;0.62;0.00;0.00;0.62;2.00;1.30;;;20.10;20.30;;;;;;2251860;61;20438;-53
2023/03/12 06:32:24;0.00;0.00;0.62;0.00;0.00;0.62;1.30;0.70;;;20.20;20.30;;;;;;2252358;61;20421;-53
2023/03/12 06:35:11;0.00;0.00;0.62;0.00;0.00;0.62;1.30;0.73;;;20.10;20.30;;;;;;2252456;61;20391;-57
2023/03/12 06:37:55;0.00;0.00;0.62;0.00;0.00;0.62;1.67;0.83;;;20.10;20.30;;;;;;2251955;61;20371;-59
2023/03/12 06:40:40;0.00;0.00;0.62;0.00;0.00;0.62;1.40;0.90;;;20.10;20.30;;;;;;2252218;61;20772;-58
2023/03/12 06:43:27;0.00;0.00;0.62;0.00;0.00;0.62;1.30;0.70;;;20.10;20.30;;;;;;2252347;61;20367;-52
2023/03/12 06:46:15;0.00;0.00;0.62;0.00;0.00;0.62;1.37;0.70;;;20.10;20.30;;;;;;2252598;61;20455;-57
2023/03/12 06:49:00;0.00;0.00;0.62;0.00;0.00;0.62;1.40;0.80;;;20.10;20.30;;;;;;2251745;61;20438;-51
2023/03/12 06:51:46;0.00;0.00;0.62;0.00;0.00;0.62;1.50;0.90;;;20.10;20.30;;;;;;2252320;61;20478;-55
2023/03/12 06:54:30;0.00;0.00;0.62;0.00;0.00;0.62;1.47;0.77;;;20.10;20.30;;;;;;2252038;61;20386;-53
2023/03/12 06:57:15;0.00;0.00;0.62;0.00;0.00;0.62;1.40;0.90;;;20.10;20.30;;;;;;2252325;61;20777;-54
2023/03/12 07:00:00;0.00;0.00;0.62;0.00;0.00;0.62;1.33;0.70;;;20.10;20.30;;;;;;2251666;61;20498;-56
2023/03/12 07:02:45;0.00;0.00;0.62;0.00;0.00;0.62;1.50;0.70;;;20.10;20.30;;;;;;2252628;61;20846;-56
2023/03/12 07:05:30;0.00;0.00;0.62;0.00;0.00;0.62;1.40;0.70;;;20.10;20.30;;;;;;2252360;61;20378;-53
2023/03/12 07:08:17;0.00;0.00;0.62;0.00;0.00;0.62;1.40;0.77;;;20.10;20.30;;;;;;2252075;61;20529;-51
2023/03/12 07:11:02;0.00;0.00;0.62;0.00;0.00;0.62;1.50;0.80;;;20.10;20.30;;;;;;2252021;61;20374;-55
2023/03/12 07:13:47;0.00;0.00;0.62;0.00;0.00;0.62;1.40;0.80;;;20.10;20.30;;;;;;2251944;61;20406;-51
2023/03/12 07:16:32;0.00;0.00;0.62;0.00;0.00;0.62;1.60;0.97;;;20.10;20.30;;;;;;2252066;61;20829;-53
2023/03/12 07:19:18;0.00;0.00;0.62;0.00;0.00;0.62;1.37;0.80;;;20.10;20.40;;;;;;2251677;61;20808;-53
2023/03/12 07:22:03;0.00;0.00;0.62;0.00;0.00;0.62;1.57;0.97;;;20.10;20.40;;;;;;2251731;61;20362;-52
2023/03/12 07:24:50;0.00;0.00;0.62;0.00;0.00;0.62;2.33;0.93;;;20.10;20.40;;;;;;2252097;61;20465;-53
2023/03/12 07:27:34;0.00;0.00;0.62;0.00;0.00;0.62;1.30;0.60;;;20.10;20.40;;;;;;2252488;61;20366;-54
2023/03/12 07:30:19;0.00;0.00;0.62;0.00;0.00;0.62;1.30;0.70;;;20.10;20.40;;;;;;2251881;61;20426;-55
2023/03/12 07:33:07;0.00;0.00;0.62;0.00;0.00;0.62;1.40;0.70;;;20.10;20.40;;;;;;2252618;61;20366;-51
2023/03/12 07:35:52;0.00;0.00;0.62;0.00;0.00;0.62;1.60;1.00;;;20.00;20.30;;;;;;2252127;61;20375;-54
2023/03/12 07:38:37;0.00;0.00;0.62;0.00;0.00;0.62;1.67;0.80;;;20.00;20.30;;;;;;2251902;61;20409;-51
2023/03/12 07:41:23;0.00;0.00;0.62;0.00;0.00;0.62;1.30;0.70;;;20.10;20.40;;;;;;2252324;61;20394;-55
2023/03/12 07:44:08;0.00;0.00;0.62;0.00;0.00;0.62;1.30;0.70;;;20.00;20.40;;;;;;2251529;61;20436;-55
2023/03/12 07:46:53;0.00;0.00;0.62;0.00;0.00;0.62;1.30;0.73;;;20.00;20.40;;;;;;2252140;61;20363;-55
2023/03/12 07:49:40;0.00;0.00;0.62;0.00;0.00;0.62;1.40;0.80;;;20.00;20.40;;;;;;2251299;61;20477;-55
2023/03/12 07:52:25;0.00;0.00;0.62;0.00;0.00;0.62;1.30;0.73;;;20.00;20.40;;;;;;2251839;61;20828;-54
2023/03/12 07:55:11;0.00;0.00;0.62;0.00;0.00;0.62;1.70;0.90;;;20.00;20.40;;;;;;2251851;61;20382;-52
2023/03/12 07:57:57;0.00;0.00;0.62;0.00;0.00;0.62;1.37;0.70;;;20.00;20.40;;;;;;2251982;61;20409;-51
2023/03/12 08:00:43;0.00;0.00;0.62;0.00;0.00;0.62;1.40;0.80;;;20.00;20.40;;;;;;2251344;61;20375;-52
2023/03/12 08:03:29;0.00;0.00;0.62;0.00;0.00;0.62;1.60;0.90;;;20.00;20.40;;;;;;2252229;61;20676;-53
2023/03/12 08:06:14;0.00;0.00;0.62;0.00;0.00;0.62;2.23;0.87;;;20.00;20.40;;;;;;2251503;61;20379;-51
2023/03/12 08:08:58;0.00;0.00;0.62;0.00;0.00;0.62;1.70;0.90;;;20.00;20.40;;;;;;2251753;61;20394;-56
2023/03/12 08:11:43;0.00;0.00;0.62;0.00;0.00;0.62;1.60;1.00;;;20.00;20.40;;;;;;2252204;61;20987;-56
2023/03/12 08:14:30;0.00;0.00;0.62;0.00;0.00;0.62;1.60;1.00;;;20.00;20.40;;;;;;2251306;61;20390;-55
2023/03/12 08:17:15;0.00;0.00;0.62;0.00;0.00;0.62;1.73;0.90;;;20.00;20.40;;;;;;2252276;61;20409;-53
2023/03/12 08:19:59;0.00;0.00;0.62;0.00;0.00;0.62;1.67;0.97;;;20.00;20.40;;;;;;2251601;61;20394;-55
2023/03/12 08:22:44;0.00;0.00;0.62;0.00;0.00;0.62;1.37;0.80;;;20.00;20.40;;;;;;2251592;61;20461;-55
2023/03/12 08:25:28;0.00;0.00;0.62;0.00;0.00;0.62;1.77;0.90;;;20.10;20.50;;;;;;2252042;61;20394;-56
2023/03/12 08:28:14;0.00;0.00;0.62;0.00;0.00;0.62;1.90;1.10;;;20.10;20.50;;;;;;2251759;61;20402;-54
2023/03/12 08:31:01;0.00;0.00;0.62;0.00;0.00;0.62;1.40;0.87;;;20.00;20.40;;;;;;2251265;61;20378;-56
2023/03/12 08:33:46;0.00;0.00;0.62;0.00;0.00;0.62;1.93;1.07;;;20.00;20.40;;;;;;2251567;61;20395;-56
2023/03/12 08:36:31;0.00;0.00;0.62;0.00;0.00;0.62;1.47;0.87;;;20.10;20.50;;;;;;2251501;61;20370;-54
2023/03/12 08:39:16;0.00;0.00;0.62;0.00;0.00;0.62;1.67;0.90;;;20.10;20.50;;;;;;2251762;61;21006;-51
2023/03/12 08:42:00;0.00;0.00;0.62;0.00;0.00;0.62;1.60;0.90;;;20.10;20.50;;;;;;2251910;61;20367;-56
2023/03/12 08:44:45;0.00;0.00;0.62;0.00;0.00;0.62;2.47;1.50;;;20.10;20.50;;;;;;2251702;61;20402;-57
2023/03/12 08:47:31;0.00;0.00;0.62;0.00;0.00;0.62;1.93;1.40;;;20.00;20.40;;;;;;2251934;61;20429;-52
2023/03/12 08:50:16;0.00;0.00;0.62;0.00;0.00;0.62;2.17;1.30;;;20.10;20.50;;;;;;2251023;61;20409;-57
2023/03/12 08:53:00;0.00;0.00;0.62;0.00;0.00;0.62;1.90;1.30;;;20.10;20.50;;;;;;2252025;61;20896;-56
2023/03/12 08:55:45;0.00;0.00;0.62;0.00;0.00;0.62;2.03;1.53;;;20.10;20.50;;;;;;2251905;61;20382;-55
2023/03/12 08:58:31;0.00;0.00;0.62;0.00;0.00;0.62;2.03;1.33;;;20.10;20.50;;;;;;2251693;61;20830;-55
2023/03/12 09:01:15;0.00;0.00;0.62;0.00;0.00;0.62;2.20;1.70;;;20.10;20.50;;;;;;2252024;61;20409;-58
2023/03/12 09:04:02;0.00;0.00;0.62;0.00;0.00;0.62;2.30;1.60;;;20.10;20.50;;;;;;2251118;61;20442;-57
2023/03/12 09:06:47;0.00;0.00;0.62;0.00;0.00;0.62;2.47;1.30;;;20.10;20.40;;;;;;2251354;61;20766;-57
2023/03/12 09:09:31;0.00;0.00;0.62;0.00;0.00;0.62;2.03;1.40;;;20.10;20.40;;;;;;2251510;61;20434;-53
2023/03/12 09:12:16;0.00;0.00;0.62;0.00;0.00;0.62;2.00;1.50;;;20.10;20.40;;;;;;2251833;61;20367;-51
2023/03/12 09:15:01;0.00;0.00;0.62;0.00;0.00;0.62;2.03;1.43;;;20.10;20.50;;;;;;2252567;61;20437;-52
2023/03/12 09:17:46;0.00;0.00;0.62;0.00;0.00;0.62;2.00;1.30;;;20.10;20.40;;;;;;2252584;61;20370;-50
2023/03/12 09:20:32;0.00;0.00;0.62;0.00;0.00;0.62;2.80;1.70;;;20.10;20.50;;;;;;2251939;61;20402;-57
2023/03/12 09:23:17;0.00;0.00;0.62;0.00;0.00;0.62;2.63;1.73;;;20.10;20.40;;;;;;2252395;61;20409;-55
2023/03/12 09:26:02;0.00;0.00;0.62;0.00;0.00;0.62;2.30;1.57;;;20.10;20.40;;;;;;2252586;61;20374;-55
2023/03/12 09:28:47;0.00;0.00;0.62;0.00;0.00;0.62;2.83;1.90;;;20.10;20.40;;;;;;2252322;61;20403;-54
2023/03/12 09:31:33;0.00;0.00;0.62;0.00;0.00;0.62;2.00;1.47;;;20.10;20.50;;;;;;2252555;61;20378;-55
2023/03/12 09:34:18;0.00;0.00;0.62;0.00;0.00;0.62;2.30;1.60;;;20.10;20.40;;;;;;2252464;61;20390;-50
2023/03/12 09:37:04;0.00;0.00;0.62;0.00;0.00;0.62;2.80;1.63;;;20.10;20.40;;;;;;2252444;61;20409;-53
2023/03/12 09:39:49;0.00;0.00;0.62;0.00;0.00;0.62;1.90;1.40;;;20.10;20.40;;;;;;2252098;61;20366;-54
2023/03/12 09:42:40;0.00;0.00;0.62;0.00;0.00;0.62;2.87;1.80;;;20.10;20.40;;;;;;2252234;61;20398;-50
2023/03/12 09:45:29;0.00;0.00;0.62;0.00;0.00;0.62;3.17;1.90;;;20.10;20.50;;;;;;2252379;61;20391;-52
2023/03/12 09:48:19;0.00;0.00;0.62;0.00;0.00;0.62;2.17;1.57;;;20.10;20.50;;;;;;2252562;61;20413;-54
2023/03/12 09:51:12;0.00;0.00;0.62;0.00;0.00;0.62;2.60;1.57;;;20.10;20.50;;;;;;2252071;61;20483;-56
2023/03/12 09:54:02;0.00;0.00;0.62;0.00;0.00;0.62;2.17;1.67;;;20.10;20.50;;;;;;2252537;61;20791;-55
2023/03/12 09:56:49;0.00;0.00;0.62;0.00;0.00;0.62;2.10;1.70;;;20.10;20.50;;;;;;2252055;61;20915;-55
2023/03/12 09:59:35;0.00;0.00;0.62;0.00;0.00;0.62;2.27;1.40;;;20.10;20.50;;;;;;2251974;61;20414;-55
2023/03/12 10:02:44;0.00;0.00;0.62;0.00;0.00;0.62;2.83;1.80;;;20.10;20.50;;;;;;2252464;61;20370;-54
2023/03/12 10:05:37;0.00;0.00;0.62;0.00;0.00;0.62;2.33;1.70;;;20.10;20.50;;;;;;2252009;61;20454;-52
2023/03/12 10:08:32;0.00;0.00;0.62;0.00;0.00;0.62;2.03;1.63;;;20.10;20.50;;;;;;2252586;61;20702;-50
2023/03/12 10:11:31;0.00;0.00;0.62;0.00;0.00;0.62;2.37;1.80;;;20.10;20.60;;;;;;2252300;61;20378;-53
2023/03/12 10:14:32;0.00;0.00;0.62;0.00;0.00;0.62;2.13;1.50;;;20.10;20.60;;;;;;2252199;61;20390;-55
2023/03/12 10:17:38;0.00;0.00;0.62;0.00;0.00;0.62;2.60;1.60;;;20.10;20.60;;;;;;2252598;61;20865;-52
2023/03/12 10:20:51;0.00;0.00;0.62;0.00;0.00;0.62;2.57;1.43;;;20.10;20.60;;;;;;2251625;61;20402;-54
2023/03/12 10:23:52;0.00;0.00;0.62;0.00;0.00;0.62;2.03;1.40;;;20.20;20.70;;;;;;2252358;61;20402;-55
2023/03/12 10:26:43;0.00;0.00;0.62;0.00;0.00;0.62;2.03;1.63;;;20.10;20.60;;;;;;2252029;61;20370;-59
2023/03/12 10:29:31;0.00;0.00;0.62;0.00;0.00;0.62;1.93;1.40;;;20.10;20.60;;;;;;2252109;61;20383;-51
2023/03/12 10:32:20;0.00;0.00;0.62;0.00;0.00;0.62;2.17;1.70;;;20.20;20.60;;;;;;2252698;61;20405;-54
2023/03/12 10:35:16;0.00;0.00;0.62;0.00;0.00;0.62;2.40;1.53;;;20.20;20.60;;;;;;2251954;61;20433;-55
2023/03/12 10:38:03;0.00;0.00;0.62;0.00;0.00;0.62;2.20;1.50;;;20.20;20.60;;;;;;2252188;61;20458;-56
2023/03/12 10:40:47;0.00;0.00;0.62;0.00;0.00;0.62;2.27;1.50;;;20.20;20.60;;;;;;2251788;61;20367;-52
2023/03/12 10:43:35;0.00;0.00;0.62;0.00;0.00;0.62;2.50;1.70;;;20.20;20.60;;;;;;2251917;61;20445;-54
2023/03/12 10:46:59;0.00;0.00;0.62;0.00;0.00;0.62;3.30;1.50;;;20.20;20.60;;;;;;2252275;61;20789;-53
2023/03/12 10:49:49;0.00;0.00;0.62;0.00;0.00;0.62;3.10;1.90;;;20.20;20.60;;;;;;2251201;61;20395;-56
2023/03/12 10:52:34;0.00;0.00;0.62;0.00;0.00;0.62;1.97;1.50;;;20.20;20.60;;;;;;2252448;61;20934;-52
2023/03/12 10:55:25;0.00;0.00;0.62;0.00;0.00;0.62;2.77;1.60;;;20.20;20.50;;;;;;2251950;61;20382;-56
2023/03/12 10:58:22;0.00;0.00;0.62;0.00;0.00;0.62;2.43;1.50;;;20.20;20.50;;;;;;2252178;61;20526;-55